createdAt,value
2019-05-07T00:02:29.543Z,7.40
2019-05-07T00:07:34.597Z,7.40
2019-05-07T00:12:38.886Z,7.30
2019-05-07T00:17:43.036Z,7.40
2019-05-07T00:22:47.563Z,7.40
2019-05-07T00:27:52.402Z,7.40
2019-05-07T00:32:56.576Z,7.40
2019-05-07T00:38:05.412Z,7.40
2019-05-07T00:43:14.122Z,7.30
2019-05-07T00:48:18.515Z,7.20
2019-05-07T00:53:23.774Z,7.20
2019-05-07T00:58:27.931Z,7.20
2019-05-07T01:03:32.830Z,7.10
2019-05-07T01:08:37.010Z,7.10
2019-05-07T01:13:43.064Z,7.10
2019-05-07T01:18:47.413Z,7.00
2019-05-07T01:23:52.331Z,7.00
2019-05-07T01:28:59.648Z,7.00
2019-05-07T01:34:23.096Z,6.90
2019-05-07T01:39:27.345Z,6.90
2019-05-07T01:44:32.571Z,6.90
2019-05-07T01:49:37.214Z,6.80
2019-05-07T01:54:42.563Z,6.70
2019-05-07T01:59:47.167Z,6.70
2019-05-07T02:05:04.814Z,6.60
2019-05-07T02:10:16.307Z,6.60
2019-05-07T02:15:22.508Z,6.60
2019-05-07T02:20:26.521Z,6.50
2019-05-07T02:25:32.765Z,6.40
2019-05-07T02:30:37.444Z,6.40
2019-05-07T02:35:43.965Z,6.30
2019-05-07T02:40:53.427Z,6.30
2019-05-07T02:46:36.022Z,6.30
2019-05-07T02:51:48.952Z,6.30
2019-05-07T02:56:53.538Z,6.20
2019-05-07T03:01:56.935Z,6.20
2019-05-07T03:07:13.179Z,6.20
2019-05-07T03:12:17.909Z,6.10
2019-05-07T03:17:24.661Z,6.10
2019-05-07T03:22:29.277Z,6.10
2019-05-07T03:27:34.390Z,6.10
2019-05-07T03:32:47.700Z,6.10
2019-05-07T03:37:49.284Z,6.10
2019-05-07T03:42:53.795Z,6.10
2019-05-07T03:48:13.604Z,6.10
2019-05-07T03:53:16.849Z,6.10
2019-05-07T03:58:23.491Z,6.10
2019-05-07T04:03:27.167Z,6.10
2019-05-07T04:08:33.478Z,6.10
2019-05-07T04:13:36.927Z,6.20
2019-05-07T04:18:43.684Z,6.20
2019-05-07T04:23:48.703Z,6.20
2019-05-07T04:29:05.967Z,6.30
2019-05-07T04:34:18.986Z,6.30
2019-05-07T04:39:23.504Z,6.30
2019-05-07T04:44:27.897Z,6.40
2019-05-07T04:49:33.149Z,6.40
2019-05-07T04:54:37.645Z,6.40
2019-05-07T04:59:42.834Z,6.50
2019-05-07T05:04:47.385Z,6.60
2019-05-07T05:09:53.142Z,6.80
2019-05-07T05:14:57.598Z,7.00
2019-05-07T05:20:03.553Z,7.10
2019-05-07T05:25:26.841Z,7.20
2019-05-07T05:30:44.433Z,7.20
2019-05-07T05:35:49.282Z,7.30
2019-05-07T05:40:53.798Z,7.40
2019-05-07T05:45:58.654Z,7.60
2019-05-07T05:51:24.574Z,7.70
2019-05-07T05:56:37.465Z,7.80
2019-05-07T06:02:04.476Z,8.00
2019-05-07T06:07:14.705Z,8.10
2019-05-07T06:12:38.006Z,8.20
2019-05-07T06:18:17.676Z,8.40
2019-05-07T06:23:33.024Z,8.60
2019-05-07T06:28:37.233Z,8.80
2019-05-07T06:33:42.972Z,9.00
2019-05-07T06:39:03.140Z,9.30
2019-05-07T06:44:12.787Z,9.50
2019-05-07T06:49:18.462Z,9.60
2019-05-07T06:54:22.776Z,9.80
2019-05-07T06:59:35.268Z,9.80
2019-05-07T07:04:46.660Z,9.90
2019-05-07T07:10:03.511Z,10.10
2019-05-07T07:15:08.569Z,10.40
2019-05-07T07:20:13.022Z,10.70
2019-05-07T07:25:17.264Z,10.90
2019-05-07T07:30:32.592Z,11.20
2019-05-07T07:35:36.975Z,11.40
2019-05-07T07:40:45.150Z,11.60
2019-05-07T07:45:49.194Z,11.70
2019-05-07T07:50:53.804Z,11.90
2019-05-07T07:56:15.240Z,12.10
2019-05-07T08:01:42.163Z,12.30
2019-05-07T08:06:48.143Z,12.50
2019-05-07T08:11:52.764Z,12.60
2019-05-07T08:16:56.179Z,12.70
2019-05-07T08:22:02.598Z,12.70
2019-05-07T08:27:06.302Z,12.70
2019-05-07T08:32:22.421Z,12.70
2019-05-07T08:37:27.059Z,12.70
2019-05-07T08:42:32.045Z,12.70
2019-05-07T08:47:42.530Z,12.60
2019-05-07T08:52:46.582Z,12.70
2019-05-07T08:57:52.463Z,13.00
2019-05-07T09:02:56.882Z,13.40
2019-05-07T09:08:02.278Z,14.00
2019-05-07T09:13:06.704Z,14.80
2019-05-07T09:18:12.428Z,15.40
2019-05-07T09:23:16.862Z,15.80
2019-05-07T09:28:22.310Z,16.30
2019-05-07T09:33:39.049Z,16.50
2019-05-07T09:38:56.106Z,16.70
2019-05-07T09:43:51.733Z,16.80
2019-05-07T09:48:55.517Z,16.30
2019-05-07T09:53:59.799Z,15.70
2019-05-07T09:59:04.046Z,15.20
2019-05-07T10:04:10.474Z,15.20
2019-05-07T10:09:15.109Z,15.30
2019-05-07T10:14:18.501Z,15.70
2019-05-07T10:19:22.856Z,17.00
2019-05-07T10:24:26.922Z,18.80
2019-05-07T10:29:32.585Z,19.70
2019-05-07T10:34:36.695Z,20.10
2019-05-07T10:39:42.903Z,20.00
2019-05-07T10:45:07.573Z,20.40
2019-05-07T10:50:38.900Z,20.20
2019-05-07T10:55:36.354Z,18.50
2019-05-07T11:00:42.107Z,17.40
2019-05-07T11:05:46.580Z,16.80
2019-05-07T11:10:52.157Z,16.40
2019-05-07T11:16:05.580Z,15.90
2019-05-07T11:21:11.862Z,16.30
2019-05-07T11:26:16.134Z,16.50
2019-05-07T11:31:22.366Z,17.10
2019-05-07T11:36:26.729Z,17.30
2019-05-07T11:41:38.001Z,17.40
2019-05-07T11:47:03.101Z,18.00
2019-05-07T11:52:14.886Z,18.70
2019-05-07T11:57:18.185Z,18.00
2019-05-07T12:02:22.748Z,17.80
2019-05-07T12:07:27.067Z,17.80
2019-05-07T12:12:32.568Z,17.30
2019-05-07T12:17:36.762Z,16.80
2019-05-07T12:22:47.086Z,16.60
2019-05-07T12:27:52.885Z,16.80
2019-05-07T12:33:08.229Z,16.60
2019-05-07T12:38:12.839Z,16.60
2019-05-07T12:43:16.115Z,16.70
2019-05-07T12:48:21.742Z,16.80
2019-05-07T12:53:43.460Z,16.60
2019-05-07T12:58:47.554Z,16.40
2019-05-07T13:04:02.502Z,16.10
2019-05-07T13:09:07.271Z,16.00
2019-05-07T13:14:12.587Z,15.90
2019-05-07T13:19:17.084Z,16.10
2019-05-07T13:24:22.796Z,16.20
2019-05-07T13:29:27.078Z,16.10
2019-05-07T13:34:33.793Z,16.00
2019-05-07T13:39:45.598Z,15.80
2019-05-07T13:45:03.517Z,15.70
2019-05-07T13:50:08.069Z,15.60
2019-05-07T13:55:14.044Z,15.50
2019-05-07T14:00:26.897Z,15.50
2019-05-07T14:05:32.345Z,15.40
2019-05-07T14:10:36.704Z,15.30
2019-05-07T14:15:43.000Z,15.30
2019-05-07T14:20:47.347Z,15.20
2019-05-07T14:25:52.657Z,15.00
2019-05-07T14:30:58.251Z,14.80
2019-05-07T14:36:07.976Z,14.60
2019-05-07T14:41:13.610Z,14.30
2019-05-07T14:46:20.130Z,14.30
2019-05-07T14:51:24.345Z,14.20
2019-05-07T14:56:28.727Z,14.30
2019-05-07T15:01:34.175Z,14.20
2019-05-07T15:06:37.304Z,14.10
2019-05-07T15:11:42.455Z,14.00
2019-05-07T15:16:47.728Z,14.00
2019-05-07T15:21:55.174Z,13.90
2019-05-07T15:27:03.552Z,14.00
2019-05-07T15:32:12.659Z,14.00
2019-05-07T15:37:16.781Z,14.00
2019-05-07T15:42:22.150Z,14.10
2019-05-07T15:47:34.388Z,14.40
2019-05-07T15:53:08.362Z,14.30
2019-05-07T15:58:14.295Z,14.00
2019-05-07T16:03:23.576Z,13.70
2019-05-07T16:08:31.894Z,13.40
2019-05-07T16:13:37.859Z,13.20
2019-05-07T16:19:01.926Z,13.10
2019-05-07T16:24:06.404Z,13.00
2019-05-07T16:29:13.029Z,13.00
2019-05-07T16:34:16.594Z,12.90
2019-05-07T16:39:22.182Z,12.80
2019-05-07T16:44:26.395Z,12.80
2019-05-07T16:49:31.869Z,12.80
2019-05-07T16:54:36.437Z,12.70
2019-05-07T16:59:42.721Z,12.70
2019-05-07T17:05:05.563Z,12.60
2019-05-07T17:10:11.702Z,12.50
2019-05-07T17:15:16.528Z,12.40
2019-05-07T17:20:22.012Z,12.20
2019-05-07T17:25:38.138Z,12.10
2019-05-07T17:30:42.286Z,12.00
2019-05-07T17:35:46.430Z,11.80
2019-05-07T17:40:52.130Z,11.70
2019-05-07T17:45:56.769Z,11.50
2019-05-07T17:51:25.897Z,11.40
2019-05-07T17:56:31.914Z,11.20
2019-05-07T18:01:54.169Z,11.00
2019-05-07T18:07:00.418Z,10.90
2019-05-07T18:12:05.065Z,10.80
2019-05-07T18:17:35.140Z,10.70
2019-05-07T18:22:39.103Z,10.70
2019-05-07T18:27:43.192Z,10.50
2019-05-07T18:32:53.246Z,10.40
2019-05-07T18:37:57.667Z,10.20
2019-05-07T18:43:03.054Z,10.10
2019-05-07T18:48:07.263Z,10.00
2019-05-07T18:53:12.248Z,10.00
2019-05-07T18:58:16.547Z,9.80
2019-05-07T19:03:21.826Z,9.70
2019-05-07T19:08:26.341Z,9.50
2019-05-07T19:13:32.497Z,9.30
2019-05-07T19:18:36.219Z,9.10
2019-05-07T19:23:42.359Z,8.90
2019-05-07T19:28:46.343Z,8.60
2019-05-07T19:33:52.521Z,8.30
2019-05-07T19:38:58.732Z,8.00
2019-05-07T19:44:02.802Z,7.80
2019-05-07T19:49:07.305Z,7.50
2019-05-07T19:54:10.569Z,7.30
2019-05-07T19:59:14.898Z,7.10
2019-05-07T20:04:20.598Z,7.00
2019-05-07T20:09:29.385Z,6.90
2019-05-07T20:14:36.243Z,6.80
2019-05-07T20:19:41.770Z,6.70
2019-05-07T20:24:47.017Z,6.70
2019-05-07T20:29:52.234Z,6.60
2019-05-07T20:34:56.544Z,6.60
2019-05-07T20:40:03.042Z,6.50
2019-05-07T20:45:07.396Z,6.40
2019-05-07T20:50:12.712Z,6.30
2019-05-07T20:55:33.888Z,6.30
2019-05-07T21:00:37.065Z,6.20
2019-05-07T21:05:42.158Z,6.20
2019-05-07T21:10:46.454Z,6.10
2019-05-07T21:15:52.683Z,6.00
2019-05-07T21:20:57.084Z,5.90
2019-05-07T21:26:02.197Z,5.80
2019-05-07T21:31:06.461Z,5.80
2019-05-07T21:36:12.099Z,5.70
2019-05-07T21:41:16.436Z,5.70
2019-05-07T21:46:22.235Z,5.70
2019-05-07T21:51:26.479Z,5.70
2019-05-07T21:56:41.247Z,5.80
2019-05-07T22:01:47.321Z,5.90
2019-05-07T22:06:52.374Z,6.00
2019-05-07T22:11:57.971Z,6.10
2019-05-07T22:17:02.161Z,6.10
2019-05-07T22:22:06.326Z,6.20
2019-05-07T22:27:12.653Z,6.20
2019-05-07T22:32:27.623Z,6.30
2019-05-07T22:37:32.515Z,6.30
2019-05-07T22:42:37.095Z,6.30
2019-05-07T22:47:42.050Z,6.30
2019-05-07T22:52:46.543Z,6.20
2019-05-07T22:58:12.341Z,6.00
2019-05-07T23:03:15.896Z,5.80
2019-05-07T23:08:22.135Z,5.50
2019-05-07T23:13:25.872Z,5.30
2019-05-07T23:18:31.875Z,5.10
2019-05-07T23:23:35.984Z,4.90
2019-05-07T23:28:41.873Z,4.80
2019-05-07T23:33:46.559Z,4.60
2019-05-07T23:38:52.068Z,4.40
2019-05-07T23:44:14.155Z,4.30
2019-05-07T23:49:18.467Z,4.20
2019-05-07T23:54:23.140Z,4.30
2019-05-07T23:59:27.516Z,4.40
